Terminal Aerodrome Forecast
Issued by NWS

Home | Current Version | Previous Version | Text Only | Print | Product List | Glossary On
Versions: 1 2 3 4 5 6 7 8 9 10 11 12 13 14 15 16 17 18 19
234
FTUS45 KRIW 012328
TAFCPR
TAF
KCPR 012328Z 0200/0224 06010KT P6SM FEW050
     FM020200 VRB06KT P6SM SCT250
     FM020700 23009KT P6SM FEW250
     FM022000 31011KT P6SM SCT250=

USA.gov is the U.S. government's official web portal to all federal, state and local government web resources and services.